Weather History for Woodward, OK

Change the Weather History Date:

Sunday, October 28, 2012

  Actual Average (KGAG) Record (KGAG)
Temperature  
Mean Temperature 47 °F -  
Max Temperature 64 °F 68 °F 82 °F (1950)
Min Temperature 30 °F 41 °F 25 °F (2012)
Degree Days  
Heating Degree Days 18    
Moisture  
Dew Point 24 °F    
Average Humidity 46    
Maximum Humidity 80    
Minimum Humidity 21    
Precipitation  
Precipitation 0.00 in - - ()
Sea Level Pressure  
Sea Level Pressure 30.23 in    
Wind  
Wind Speed 5 mph (South)    
Max Wind Speed 13 mph    
Max Gust Speed 20 mph    
Visibility 10 miles    
Events      
Averages and records for this station are not official NWS values.
T = Trace of Precipitation, MM = Missing Value Source: NWS Daily Summary

Daily Weather History Graph

Daily Weather History Graph

Search for Another Location

Airport:

Trip Planner

Search our weather history database for the weather conditions in past years. The results will help you decide how hot, cold, wet, or windy it might be!

Date:

Astronomy

Oct. 28, 2012 Rise Set
Actual Time 7:57 AM CDT 6:45 PM CDT
Civil Twilight 7:31 AM CDT 7:11 PM CDT
Nautical Twilight 7:01 AM CDT 7:42 PM CDT
Astronomical Twilight 6:31 AM CDT 8:12 PM CDT
Moon 6:03 PM CDT (10/28) 6:53 AM CDT (10/28)
Length of Visible Light 11h 40m
Length of Day
10h 47m
Waxing Gibbous, 99% of the Moon is Illuminated
Oct 28
Waxing Gibbous
Oct 29
Full
Nov 6
Last Quarter
Nov 13
New
Nov 20
First Quarter

Hourly Weather History & Observations

Time (CDT) Temp. Windchill Dew Point Humidity Pressure Visibility Wind Dir Wind Speed Gust Speed Precip Events Conditions
12:15 AM 33.8 °F 30.8 °F 23.0 °F 65% 30.25 in 10.0 mi SSE 3.5 mph - N/A   Clear
12:35 AM 35.6 °F - 23.0 °F 60% 30.25 in 10.0 mi Calm Calm - N/A   Clear
12:55 AM 35.6 °F - 23.0 °F 60% 30.26 in 10.0 mi Calm Calm - N/A   Clear
1:15 AM 35.6 °F - 23.0 °F 60% 30.26 in 10.0 mi Calm Calm - N/A   Clear
1:35 AM 33.8 °F 30.8 °F 23.0 °F 65% 30.26 in 10.0 mi East 3.5 mph - N/A   Clear
2:15 AM 33.8 °F 28.6 °F 24.8 °F 70% 30.25 in 10.0 mi SSE 5.8 mph - N/A   Clear
2:35 AM 32.0 °F 25.6 °F 24.8 °F 75% 30.25 in 10.0 mi SSE 6.9 mph - N/A   Clear
2:55 AM 33.8 °F 29.6 °F 24.8 °F 70% 30.26 in 10.0 mi SE 4.6 mph - N/A   Clear
3:15 AM 33.8 °F 29.6 °F 24.8 °F 70% 30.25 in 10.0 mi SSE 4.6 mph - N/A   Clear
3:35 AM 33.8 °F 30.8 °F 24.8 °F 70% 30.25 in 10.0 mi SSE 3.5 mph - N/A   Clear
3:55 AM 33.8 °F - 24.8 °F 70% 30.26 in 10.0 mi Calm Calm - N/A   Clear
4:15 AM 32.0 °F - 23.0 °F 69% 30.25 in 10.0 mi Calm Calm - N/A   Clear
4:35 AM 33.8 °F 29.6 °F 23.0 °F 65% 30.25 in 10.0 mi SE 4.6 mph - N/A   Clear
4:55 AM 32.0 °F 27.5 °F 23.0 °F 69% 30.25 in 10.0 mi SSE 4.6 mph - N/A   Clear
5:15 AM 32.0 °F 27.5 °F 23.0 °F 69% 30.26 in 10.0 mi SSE 4.6 mph - N/A   Clear
5:35 AM 32.0 °F - 23.0 °F 69% 30.26 in 10.0 mi Calm Calm - N/A   Clear
5:55 AM 32.0 °F - 23.0 °F 69% 30.27 in 10.0 mi Calm Calm - N/A   Clear
6:15 AM 32.0 °F 28.7 °F 23.0 °F 69% 30.26 in 10.0 mi South 3.5 mph - N/A   Clear
6:35 AM 30.2 °F 25.4 °F 23.0 °F 75% 30.27 in 10.0 mi South 4.6 mph - N/A   Clear
6:55 AM 32.0 °F 26.4 °F 23.0 °F 69% 30.27 in 10.0 mi South 5.8 mph - N/A   Clear
7:15 AM 32.0 °F 25.6 °F 23.0 °F 69% 30.26 in 10.0 mi SSE 6.9 mph - N/A   Clear
7:35 AM 32.0 °F 26.4 °F 23.0 °F 69% 30.26 in 10.0 mi South 5.8 mph - N/A   Clear
7:55 AM 32.0 °F 27.5 °F 23.0 °F 69% 30.26 in 10.0 mi SSW 4.6 mph - N/A   Clear
8:15 AM 30.2 °F 25.4 °F 24.8 °F 80% 30.27 in 10.0 mi SW 4.6 mph - N/A   Clear
8:35 AM 32.0 °F 27.5 °F 24.8 °F 75% 30.28 in 10.0 mi SSW 4.6 mph - N/A   Clear
8:55 AM 33.8 °F 29.6 °F 24.8 °F 70% 30.28 in 10.0 mi SSW 4.6 mph - N/A   Clear
9:15 AM 39.2 °F 35.9 °F 26.6 °F 61% 30.28 in 10.0 mi SSW 4.6 mph - N/A   Clear
9:55 AM 46.4 °F 41.9 °F 26.6 °F 46% 30.28 in 10.0 mi SSW 9.2 mph - N/A   Clear
10:15 AM 50.0 °F - 26.6 °F 40% 30.28 in 10.0 mi SW 10.4 mph - N/A   Clear
10:35 AM 51.8 °F - 26.6 °F 38% 30.28 in 10.0 mi SW 10.4 mph - N/A   Clear
10:55 AM 51.8 °F - 26.6 °F 38% 30.28 in 10.0 mi SW 9.2 mph - N/A   Clear
11:15 AM 53.6 °F - 26.6 °F 35% 30.28 in 10.0 mi SSW 6.9 mph - N/A   Clear
11:35 AM 53.6 °F - 26.6 °F 35% 30.28 in 10.0 mi SW 4.6 mph - N/A   Clear
12:15 PM 55.4 °F - 26.6 °F 33% 30.26 in 10.0 mi Calm Calm - N/A   Clear
12:35 PM 57.2 °F - 24.8 °F 29% 30.25 in 10.0 mi SW 3.5 mph - N/A   Clear
12:55 PM 59.0 °F - 26.6 °F 29% 30.25 in 10.0 mi South 8.1 mph - N/A   Clear
1:15 PM 60.8 °F - 24.8 °F 25% 30.24 in 10.0 mi SSW 8.1 mph - N/A   Clear
1:35 PM 60.8 °F - 24.8 °F 25% 30.23 in 10.0 mi South 8.1 mph - N/A   Clear
1:55 PM 62.6 °F - 23.0 °F 22% 30.21 in 10.0 mi South 8.1 mph - N/A   Clear
2:15 PM 62.6 °F - 23.0 °F 22% 30.20 in 10.0 mi SW 4.6 mph - N/A   Clear
2:35 PM 62.6 °F - 23.0 °F 22% 30.19 in 10.0 mi South 8.1 mph - N/A   Clear
2:55 PM 64.4 °F - 23.0 °F 21% 30.18 in 10.0 mi SSE 9.2 mph - N/A   Clear
3:15 PM 64.4 °F - 23.0 °F 21% 30.17 in 10.0 mi SSE 5.8 mph - N/A   Clear
3:35 PM 64.4 °F - 23.0 °F 21% 30.16 in 10.0 mi South 8.1 mph - N/A   Clear
3:55 PM 64.4 °F - 23.0 °F 21% 30.16 in 10.0 mi South 6.9 mph - N/A   Clear
4:15 PM 64.4 °F - 23.0 °F 21% 30.16 in 10.0 mi SSW 10.4 mph - N/A   Clear
4:55 PM 62.6 °F - 23.0 °F 22% 30.16 in 10.0 mi South 11.5 mph 19.6 mph N/A   Clear
5:15 PM 62.6 °F - 23.0 °F 22% 30.16 in 10.0 mi SSE 12.7 mph 17.3 mph N/A   Clear
5:35 PM 62.6 °F - 23.0 °F 22% 30.16 in 10.0 mi SSE 9.2 mph - N/A   Clear
5:55 PM 60.8 °F - 23.0 °F 23% 30.16 in 10.0 mi SSE 10.4 mph - N/A   Clear
6:15 PM 60.8 °F - 23.0 °F 23% 30.16 in 10.0 mi SSE 10.4 mph - N/A   Clear
6:35 PM 59.0 °F - 23.0 °F 25% 30.16 in 10.0 mi SE 8.1 mph - N/A   Clear
6:55 PM 55.4 °F - 23.0 °F 29% 30.16 in 10.0 mi SSE 8.1 mph - N/A   Clear
7:15 PM 53.6 °F - 23.0 °F 30% 30.16 in 10.0 mi SSE 9.2 mph - N/A   Clear
7:35 PM 51.8 °F - 23.0 °F 33% 30.17 in 10.0 mi SSE 9.2 mph - N/A   Clear
7:55 PM 51.8 °F - 23.0 °F 33% 30.18 in 10.0 mi SSE 9.2 mph - N/A   Clear
8:15 PM 50.0 °F - 24.8 °F 37% 30.17 in 10.0 mi SSE 9.2 mph - N/A   Clear
8:35 PM 50.0 °F - 24.8 °F 37% 30.18 in 10.0 mi SSE 9.2 mph - N/A   Clear
9:15 PM 50.0 °F - 24.8 °F 37% 30.18 in 10.0 mi SSE 9.2 mph - N/A   Clear
9:55 PM 50.0 °F - 24.8 °F 37% 30.19 in 10.0 mi SSE 9.2 mph - N/A   Clear
10:15 PM 50.0 °F - 24.8 °F 37% 30.19 in 10.0 mi SSE 9.2 mph - N/A   Clear
10:35 PM 48.2 °F - 24.8 °F 40% 30.20 in 10.0 mi South 9.2 mph - N/A   Clear
10:55 PM 48.2 °F - 26.6 °F 43% 30.20 in 10.0 mi South 10.4 mph - N/A   Clear
11:15 PM 48.2 °F - 26.6 °F 43% 30.20 in 10.0 mi South 9.2 mph - N/A   Clear
11:55 PM 48.2 °F - 26.6 °F 43% 30.21 in 10.0 mi South 10.4 mph - N/A   Clear